Forside
METAR-TAF:

METAR-TAF

Lufthavne :

Decorah Municipal Airport

Decorah, Iowa, USA

Breddekreds: 43-17N, længdekreds: 091-44W, højde: 353 m

Aktuelle vejr

Denne rapport blev lavet for 24 minutter siden, kl. 11:55 UTC
Vind 9 kt fra sydøst med vindstød på up til 14 kt, varierende mellem østsydøst og syd
Temperatur 0°C
Fugtighed 100%
Tryk 1018 hPa
Sigt: 3.2 km
Overskyet i en højde af 500 ft
dis

METAR: KDEH 241155Z AUTO 14009G14KT 110V170 2SM BR OVC005 00/00 A3005 RMK AO2 P0001

Tid: 06:19 (12:19 UTC)


TAF: fraværende

Vejrobservationer og prognoser fra mere end 4000 lufthavne (METAR og TAF).

De gule og røde prikker repræsenterer de meteorologiske stationer.

Flyt musen over at se navnet på stationen.

Så klik over at se vejr observationer og prognoser.

At skifte det kort: Klik på de grønne knapper med et sort kors for at zoome ind; på den grønne knap med en bindestreg for at zoome ud; eller på de grønne pile for tilstødende kort.


METAR-TAF: